Time;durP1;ratioP1;P1;durP2;ratioP2;P2;SDS_P1;SDS_P2;PMS_P1;PMS_P2;Temp;Humidity;BMP_temperature;BMP_pressure;BME280_temperature;BME280_humidity;BME280_pressure;Samples;Min_cycle;Max_cycle;Signal;HPM_P1;HPM_P2
2022/10/21 00:00:27;;;;;;;0.50;0.50;;;;;;;12.64;81.67;100453.22;5036992;28;20208;-68
2022/10/21 00:02:55;;;;;;;0.63;0.63;;;;;;;12.58;81.45;100451.63;5031706;28;20704;-68
2022/10/21 00:05:22;;;;;;;0.60;0.60;;;;;;;12.49;80.77;100456.97;5025990;28;20221;-68
2022/10/21 00:07:49;;;;;;;0.50;0.50;;;;;;;12.43;81.14;100451.97;5032747;28;20232;-68
2022/10/21 00:10:17;;;;;;;0.77;0.77;;;;;;;12.42;80.80;100446.84;5013955;28;20270;-68
2022/10/21 00:12:44;;;;;;;0.50;0.50;;;;;;;12.39;81.00;100450.31;5031297;28;20201;-68
2022/10/21 00:15:11;;;;;;;0.50;0.50;;;;;;;12.29;81.10;100437.69;5031755;28;20589;-68
2022/10/21 00:17:40;;;;;;;0.50;0.50;;;;;;;12.35;81.56;100451.25;5026324;28;20197;-68
2022/10/21 00:20:11;;;;;;;0.60;0.60;;;;;;;12.34;81.49;100448.75;5031345;28;20201;-68
2022/10/21 00:22:39;;;;;;;0.50;0.50;;;;;;;12.27;81.21;100453.16;5030346;28;20197;-68
2022/10/21 00:25:06;;;;;;;0.50;0.50;;;;;;;12.24;81.41;100453.22;5030074;28;20223;-68
2022/10/21 00:27:33;;;;;;;0.63;0.63;;;;;;;12.26;81.30;100442.88;5031473;28;20212;-68
2022/10/21 00:30:00;;;;;;;0.57;0.57;;;;;;;12.13;81.68;100433.72;5031062;28;20209;-68
2022/10/21 00:32:27;;;;;;;0.70;0.70;;;;;;;12.24;81.69;100439.53;5031076;28;20205;-68
2022/10/21 00:34:54;;;;;;;0.60;0.60;;;;;;;12.20;81.77;100438.72;5031305;28;20205;-68
2022/10/21 00:37:22;;;;;;;0.90;0.90;;;;;;;12.18;81.72;100440.47;5032512;28;20204;-68
2022/10/21 00:39:49;;;;;;;0.50;0.50;;;;;;;12.09;82.38;100436.38;5030204;28;20666;-68
2022/10/21 00:42:18;;;;;;;0.67;0.67;;;;;;;12.15;82.28;100440.53;5031709;28;20209;-68
2022/10/21 00:45:02;;;;;;;0.60;0.60;;;;;;;12.12;82.78;100440.59;5033607;28;20205;-68
2022/10/21 00:47:29;;;;;;;0.70;0.70;;;;;;;12.05;83.00;100439.03;5030029;28;20216;-68
2022/10/21 00:50:00;;;;;;;0.50;0.50;;;;;;;12.04;83.02;100434.78;5030620;28;20693;-68
2022/10/21 00:52:30;;;;;;;0.60;0.60;;;;;;;11.94;83.55;100440.97;5031062;28;20211;-68
2022/10/21 00:54:59;;;;;;;0.50;0.50;;;;;;;11.81;84.00;100445.47;5027055;28;20654;-68
2022/10/21 00:57:27;;;;;;;0.60;0.60;;;;;;;11.76;84.12;100442.13;5030486;28;20220;-68
2022/10/21 00:59:58;;;;;;;0.80;0.80;;;;;;;11.75;84.77;100444.75;5032354;28;20212;-68
2022/10/21 01:02:25;;;;;;;0.50;0.50;;;;;;;11.68;84.55;100426.00;5031302;28;20205;-68
2022/10/21 01:04:53;;;;;;;0.70;0.70;;;;;;;11.76;84.54;100441.31;5033688;28;20673;-68
2022/10/21 01:07:20;;;;;;;0.53;0.53;;;;;;;11.74;84.20;100443.91;5034663;28;20713;-68
2022/10/21 01:09:49;;;;;;;0.63;0.63;;;;;;;11.74;84.28;100440.47;5034519;28;20590;-68
2022/10/21 01:12:25;;;;;;;0.60;0.60;;;;;;;11.65;84.27;100420.06;5034856;28;20579;-68
2022/10/21 01:14:58;;;;;;;0.60;0.60;;;;;;;11.70;83.81;100437.13;5034022;28;20247;-68
2022/10/21 01:17:40;;;;;;;0.53;0.53;;;;;;;11.69;84.24;100432.00;5035823;28;20208;-68
2022/10/21 01:20:35;;;;;;;0.60;0.60;;;;;;;11.69;83.98;100437.13;5031805;28;20198;-68
2022/10/21 01:23:56;;;;;;;0.60;0.60;;;;;;;11.66;83.62;100434.63;5026282;28;20616;-68
2022/10/21 01:26:42;;;;;;;0.60;0.60;;;;;;;11.62;83.93;100441.53;5028379;28;20220;-68
2022/10/21 01:29:40;;;;;;;0.50;0.50;;;;;;;11.56;83.75;100442.50;5035125;28;20209;-68
2022/10/21 01:32:16;;;;;;;0.60;0.60;;;;;;;11.52;84.28;100438.28;5031093;28;20212;-68
2022/10/21 01:34:50;;;;;;;0.60;0.60;;;;;;;11.50;84.49;100445.13;5036144;28;20209;-68
2022/10/21 01:37:24;;;;;;;0.60;0.60;;;;;;;11.44;84.62;100440.09;5035091;28;20200;-68
2022/10/21 01:39:56;;;;;;;0.60;0.60;;;;;;;11.43;84.12;100442.72;5033301;28;20663;-68
2022/10/21 01:42:31;;;;;;;0.60;0.60;;;;;;;11.36;84.31;100447.09;5033417;28;20217;-68
2022/10/21 01:45:02;;;;;;;0.57;0.57;;;;;;;11.33;84.60;100447.16;5034276;28;20223;-68
2022/10/21 01:47:34;;;;;;;0.70;0.70;;;;;;;11.30;84.33;100449.78;5029802;28;20720;-68
2022/10/21 01:50:07;;;;;;;0.60;0.60;;;;;;;11.26;84.71;100450.69;5033726;28;20205;-68
2022/10/21 01:52:33;;;;;;;0.80;0.80;;;;;;;11.25;84.08;100449.00;5033773;28;20198;-69
2022/10/21 01:55:04;;;;;;;0.40;0.40;;;;;;;11.26;84.31;100450.69;5033598;28;20197;-68
2022/10/21 01:57:37;;;;;;;0.70;0.70;;;;;;;11.24;83.93;100442.19;5036669;28;20189;-68
2022/10/21 02:00:05;;;;;;;0.57;0.57;;;;;;;11.21;83.79;100447.34;5035234;28;20197;-68
2022/10/21 02:02:38;;;;;;;0.50;0.50;;;;;;;11.19;84.25;100453.38;5031819;28;20221;-69
2022/10/21 02:05:12;;;;;;;0.50;0.50;;;;;;;11.18;84.44;100455.09;5033596;28;20193;-68
2022/10/21 02:07:39;;;;;;;0.70;0.70;;;;;;;11.02;84.73;100430.53;5030708;28;20227;-68
2022/10/21 02:10:06;;;;;;;0.87;0.87;;;;;;;11.01;85.54;100439.97;5032929;28;20686;-68
2022/10/21 02:12:36;;;;;;;0.63;0.63;;;;;;;11.12;85.87;100462.88;5033899;28;20210;-68
2022/10/21 02:15:08;;;;;;;0.60;0.60;;;;;;;11.09;85.78;100457.81;5033031;28;20680;-68
2022/10/21 02:17:38;;;;;;;0.43;0.43;;;;;;;11.10;85.90;100459.50;5033725;28;20205;-68
2022/10/21 02:20:09;;;;;;;0.50;0.50;;;;;;;10.88;86.06;100428.22;5033178;28;20205;-68
2022/10/21 02:22:37;;;;;;;0.70;0.70;;;;;;;11.00;85.99;100437.44;5032502;28;20197;-68
2022/10/21 02:25:10;;;;;;;0.60;0.60;;;;;;;11.09;86.25;100457.81;5032359;28;20198;-69
2022/10/21 02:27:37;;;;;;;0.53;0.53;;;;;;;11.08;85.96;100462.09;5032477;28;20221;-68
2022/10/21 02:30:05;;;;;;;0.60;0.60;;;;;;;11.02;86.41;100445.94;5033130;28;20730;-68
2022/10/21 02:32:38;;;;;;;0.60;0.60;;;;;;;11.06;85.90;100461.28;5033584;28;20681;-69
2022/10/21 02:35:17;;;;;;;0.60;0.60;;;;;;;11.05;86.53;100461.28;5031409;28;20201;-68
2022/10/21 02:37:52;;;;;;;0.60;0.60;;;;;;;11.04;86.75;100464.75;5032933;28;20200;-68
2022/10/21 02:40:26;;;;;;;0.70;0.70;;;;;;;10.98;86.79;100469.97;5023443;28;20193;-69
2022/10/21 02:42:59;;;;;;;0.43;0.43;;;;;;;10.86;87.78;100470.13;5032277;28;20194;-68
2022/10/21 02:45:27;;;;;;;0.47;0.47;;;;;;;10.87;87.11;100469.25;5032092;28;20209;-68
2022/10/21 02:47:55;;;;;;;0.60;0.60;;;;;;;10.89;87.24;100475.19;5032779;28;20297;-69
2022/10/21 02:50:22;;;;;;;1.13;1.13;;;;;;;10.84;87.41;100471.88;5031580;28;20211;-69
2022/10/21 02:52:49;;;;;;;0.50;0.50;;;;;;;10.82;87.54;100478.75;5032238;28;20739;-69
2022/10/21 02:55:16;;;;;;;0.60;0.60;;;;;;;10.74;87.81;100475.44;5032487;28;20202;-69
2022/10/21 02:57:43;;;;;;;0.53;0.53;;;;;;;10.72;87.55;100482.31;5032805;28;20193;-68
2022/10/21 03:00:11;;;;;;;0.60;0.60;;;;;;;10.74;87.24;100480.56;5032791;28;20205;-68
2022/10/21 03:02:38;;;;;;;1.27;1.20;;;;;;;10.47;87.66;100446.72;5031920;28;20209;-68
2022/10/21 03:05:08;;;;;;;0.50;0.50;;;;;;;10.70;87.30;100484.03;5032539;28;20208;-69
2022/10/21 03:07:35;;;;;;;0.50;0.50;;;;;;;10.71;87.23;100491.72;5030391;28;20221;-68
2022/10/21 03:10:02;;;;;;;0.70;0.70;;;;;;;10.73;86.75;100499.38;5032293;28;20201;-68
2022/10/21 03:12:28;;;;;;;0.50;0.50;;;;;;;10.70;87.00;100484.03;5032786;28;20578;-68
2022/10/21 03:14:55;;;;;;;0.67;0.67;;;;;;;10.56;86.98;100476.53;5033210;28;20201;-69
2022/10/21 03:17:22;;;;;;;0.50;0.50;;;;;;;10.72;87.14;100497.69;5032797;28;20210;-68
2022/10/21 03:19:49;;;;;;;0.60;0.60;;;;;;;10.53;86.88;100471.44;5032685;28;20697;-68
2022/10/21 03:22:17;;;;;;;0.63;0.63;;;;;;;10.68;86.76;100490.91;5033356;28;20209;-68
2022/10/21 03:24:44;;;;;;;0.80;0.80;;;;;;;10.59;86.56;100486.75;5031973;28;21377;-68
2022/10/21 03:27:11;;;;;;;0.70;0.70;;;;;;;10.70;86.52;100489.16;5030732;28;20721;-68
2022/10/21 03:29:38;;;;;;;1.13;1.13;;;;;;;10.63;86.76;100474.75;5032743;28;20208;-69
2022/10/21 03:32:05;;;;;;;0.60;0.60;;;;;;;10.71;86.07;100486.59;5033709;28;20221;-68
2022/10/21 03:34:32;;;;;;;0.80;0.80;;;;;;;10.70;85.79;100489.16;5033456;28;20201;-68
2022/10/21 03:36:59;;;;;;;0.87;0.87;;;;;;;10.66;86.03;100492.66;5033631;28;20713;-69
2022/10/21 03:39:27;;;;;;;1.20;1.20;;;;;;;10.60;86.40;100477.34;5031575;28;20201;-68
2022/10/21 03:41:54;;;;;;;0.50;0.50;;;;;;;10.59;86.29;100491.88;5032454;28;20205;-68
2022/10/21 03:44:20;;;;;;;0.70;0.70;;;;;;;10.58;86.72;100494.44;5037525;28;20208;-69
2022/10/21 03:46:47;;;;;;;0.50;0.50;;;;;;;10.56;86.88;100488.50;5037468;28;20692;-69
2022/10/21 03:49:14;;;;;;;0.57;0.57;;;;;;;10.52;86.78;100485.13;5034598;28;20577;-68
2022/10/21 03:51:41;;;;;;;0.50;0.50;;;;;;;10.50;87.27;100487.69;5034373;28;20197;-68
2022/10/21 03:54:08;;;;;;;0.83;0.83;;;;;;;10.42;87.41;100479.28;5034975;28;20589;-68
2022/10/21 03:56:36;;;;;;;0.50;0.50;;;;;;;10.49;87.37;100491.16;5031011;28;20194;-68
2022/10/21 03:59:03;;;;;;;0.50;0.50;;;;;;;10.50;87.42;100492.81;5029411;28;20204;-68
2022/10/21 04:01:30;;;;;;;0.60;0.60;;;;;;;10.50;86.78;100500.50;5031060;28;20716;-68
2022/10/21 04:03:57;;;;;;;0.40;0.40;;;;;;;10.47;87.40;100492.88;5036939;28;20219;-68
2022/10/21 04:06:24;;;;;;;0.80;0.80;;;;;;;10.46;87.30;100496.31;5024865;28;20260;-68
2022/10/21 04:08:51;;;;;;;0.87;0.87;;;;;;;10.43;87.41;100496.34;5010320;28;20670;-68
2022/10/21 04:11:17;;;;;;;0.47;0.47;;;;;;;10.41;87.64;100487.81;5010144;28;20202;-68
2022/10/21 04:13:46;;;;;;;0.67;0.67;;;;;;;10.22;88.44;100486.34;5010722;28;20713;-69
2022/10/21 04:16:16;;;;;;;0.70;0.70;;;;;;;10.26;89.05;100502.53;5010147;28;20205;-68
2022/10/21 04:18:43;;;;;;;0.60;0.60;;;;;;;10.19;89.09;100496.63;5010231;28;20206;-68
2022/10/21 04:21:10;;;;;;;0.63;0.63;;;;;;;10.10;89.22;100485.59;5009794;28;20206;-68
2022/10/21 04:23:37;;;;;;;0.60;0.60;;;;;;;10.13;89.29;100496.66;5010277;28;20578;-68
2022/10/21 04:26:07;;;;;;;0.50;0.50;;;;;;;10.12;89.08;100492.41;5009957;28;20284;-68
2022/10/21 04:28:34;;;;;;;0.50;0.50;;;;;;;10.06;89.38;100489.91;5010216;28;20209;-68
2022/10/21 04:31:03;;;;;;;0.50;0.50;;;;;;;9.87;90.03;100478.16;5010328;28;20575;-68
2022/10/21 04:33:30;;;;;;;0.67;0.67;;;;;;;9.94;89.46;100496.00;5009853;28;20194;-68
2022/10/21 04:35:57;;;;;;;0.50;0.50;;;;;;;9.92;89.17;100502.00;5009937;28;20213;-69
2022/10/21 04:38:25;;;;;;;0.60;0.60;;;;;;;9.87;88.84;100498.66;5011233;28;20202;-68
2022/10/21 04:40:56;;;;;;;1.03;1.03;;;;;;;9.82;88.19;100501.22;5011646;28;20580;-68
2022/10/21 04:43:23;;;;;;;0.50;0.50;;;;;;;9.76;87.81;100498.72;5013626;28;20225;-68
2022/10/21 04:45:50;;;;;;;0.60;0.60;;;;;;;9.66;88.10;100496.28;5014085;28;20232;-69
2022/10/21 04:48:19;;;;;;;0.60;0.60;;;;;;;9.66;88.14;100496.28;5013387;28;20221;-69
2022/10/21 04:50:48;;;;;;;0.80;0.80;;;;;;;9.63;87.75;100504.00;5012427;28;20202;-69
2022/10/21 04:53:15;;;;;;;0.83;0.83;;;;;;;9.57;88.75;100509.16;5015968;28;20206;-68
2022/10/21 04:55:42;;;;;;;0.63;0.63;;;;;;;9.55;89.16;100500.66;5013635;28;20531;-68
2022/10/21 04:58:09;;;;;;;0.60;0.60;;;;;;;9.52;89.67;100505.78;5013490;28;20205;-68
2022/10/21 05:00:35;;;;;;;0.67;0.67;;;;;;;9.57;89.35;100509.16;5013522;28;20213;-68
2022/10/21 05:03:02;;;;;;;0.60;0.60;;;;;;;9.61;89.57;100508.28;5013377;28;20209;-69
2022/10/21 05:05:31;;;;;;;0.50;0.50;;;;;;;9.61;89.68;100500.59;5013536;28;20202;-69
2022/10/21 05:07:57;;;;;;;0.70;0.70;;;;;;;9.65;89.93;100509.94;5012246;28;20230;-68
2022/10/21 05:10:24;;;;;;;0.63;0.63;;;;;;;9.68;89.71;100507.38;5013207;28;20202;-68
2022/10/21 05:12:51;;;;;;;0.93;0.93;;;;;;;9.67;90.38;100511.63;5013035;28;20662;-69
2022/10/21 05:15:18;;;;;;;0.60;0.60;;;;;;;9.69;90.04;100509.91;5013306;28;20753;-69
2022/10/21 05:17:45;;;;;;;0.53;0.53;;;;;;;9.75;90.33;100514.13;5008871;28;20559;-69
2022/10/21 05:20:12;;;;;;;0.80;0.80;;;;;;;9.81;90.26;100519.19;5012494;28;20202;-69
2022/10/21 05:22:40;;;;;;;0.60;0.60;;;;;;;9.77;90.14;100522.63;5008656;28;20213;-69
2022/10/21 05:25:08;;;;;;;0.60;0.60;;;;;;;9.77;89.48;100523.50;5010473;28;20225;-68
2022/10/21 05:27:35;;;;;;;0.60;0.60;;;;;;;9.80;89.73;100527.72;5012573;28;20218;-69
2022/10/21 05:30:03;;;;;;;1.03;1.03;;;;;;;9.82;89.69;100531.16;5011543;28;20625;-68
2022/10/21 05:32:29;;;;;;;0.60;0.60;;;;;;;9.83;90.15;100532.81;5011045;28;20234;-69
2022/10/21 05:34:56;;;;;;;0.70;0.70;;;;;;;9.91;89.57;100541.31;5011910;28;20229;-69
2022/10/21 05:37:23;;;;;;;0.57;0.57;;;;;;;9.92;89.33;100542.97;5008900;28;20205;-68
2022/10/21 05:39:51;;;;;;;0.60;0.60;;;;;;;9.92;89.32;100548.09;5010771;28;20201;-68
2022/10/21 05:42:18;;;;;;;1.07;1.07;;;;;;;9.93;89.85;100552.38;5011728;28;20229;-68
2022/10/21 05:44:45;;;;;;;1.07;1.07;;;;;;;9.93;89.99;100555.78;5011676;28;20209;-68
2022/10/21 05:47:11;;;;;;;0.97;0.97;;;;;;;9.91;90.37;100551.53;5011293;28;20226;-68
2022/10/21 05:49:38;;;;;;;0.53;0.53;;;;;;;9.92;90.41;100556.63;5010818;28;20630;-68
2022/10/21 05:52:05;;;;;;;1.43;1.33;;;;;;;9.97;90.49;100561.72;5011378;28;20206;-68
2022/10/21 05:54:32;;;;;;;0.70;0.70;;;;;;;9.99;90.76;100565.13;5009293;28;20213;-69
2022/10/21 05:57:01;;;;;;;0.60;0.60;;;;;;;9.97;90.80;100561.72;5009756;28;20202;-68
2022/10/21 05:59:28;;;;;;;0.60;0.60;;;;;;;9.87;91.48;100571.22;5011523;28;20210;-68
2022/10/21 06:01:54;;;;;;;0.50;0.50;;;;;;;9.82;91.91;100561.88;5011612;28;20206;-68
2022/10/21 06:04:21;;;;;;;0.90;0.90;;;;;;;9.80;92.08;100563.59;5010082;28;20255;-68
2022/10/21 06:06:48;;;;;;;0.60;0.60;;;;;;;9.70;92.92;100565.38;5015091;28;20230;-69
2022/10/21 06:09:15;;;;;;;0.50;0.50;;;;;;;9.61;93.14;100572.28;5026839;28;20211;-68
2022/10/21 06:11:42;;;;;;;0.63;0.63;;;;;;;9.61;93.60;100569.72;5013622;28;20202;-68
2022/10/21 06:14:10;;;;;;;0.70;0.70;;;;;;;9.56;95.22;100568.91;5022821;28;20296;-67
2022/10/21 06:16:37;;;;;;;0.50;0.50;;;;;;;9.70;95.59;100564.50;5011390;28;20210;-68
2022/10/21 06:19:04;;;;;;;0.60;0.60;;;;;;;9.77;96.03;100573.84;5025109;28;20662;-68
2022/10/21 06:21:30;;;;;;;0.60;0.60;;;;;;;9.86;96.16;100576.34;5027895;28;20213;-68
2022/10/21 06:23:57;;;;;;;0.60;0.60;;;;;;;9.95;96.31;100578.84;5032234;28;20209;-68
2022/10/21 06:26:24;;;;;;;0.53;0.53;;;;;;;9.97;96.29;100579.66;5027754;28;20267;-68
2022/10/21 06:28:51;;;;;;;0.40;0.40;;;;;;;10.07;96.91;100577.88;5026510;28;20226;-68
2022/10/21 06:31:20;;;;;;;0.50;0.50;;;;;;;10.19;96.76;100583.75;5028282;28;20597;-68
2022/10/21 06:33:47;;;;;;;0.70;0.70;;;;;;;10.21;96.69;100579.44;5026143;28;20217;-68
2022/10/21 06:36:14;;;;;;;0.57;0.57;;;;;;;10.27;96.12;100581.97;5008681;28;20601;-69
2022/10/21 06:38:41;;;;;;;0.70;0.70;;;;;;;10.32;96.16;100584.47;5016906;28;20198;-69
2022/10/21 06:41:10;;;;;;;0.50;0.50;;;;;;;10.41;95.81;100579.25;5019415;28;20259;-69
2022/10/21 06:43:38;;;;;;;0.77;0.77;;;;;;;10.33;95.89;100556.28;5019269;28;20838;-69
2022/10/21 06:46:07;;;;;;;0.57;0.57;;;;;;;10.59;96.39;100588.47;5021994;28;20198;-69
2022/10/21 06:48:35;;;;;;;0.70;0.70;;;;;;;10.55;95.52;100585.09;5020053;28;20225;-70
2022/10/21 06:51:04;;;;;;;0.60;0.60;;;;;;;10.72;96.04;100584.91;5027841;28;20201;-70
2022/10/21 06:53:32;;;;;;;0.70;0.70;;;;;;;10.80;97.05;100583.06;5013693;28;20210;-69
2022/10/21 06:56:03;;;;;;;0.83;0.83;;;;;;;10.95;94.74;100586.28;5020048;28;20214;-69
2022/10/21 06:58:30;;;;;;;0.60;0.60;;;;;;;11.02;93.51;100584.50;5012790;28;20678;-69
2022/10/21 07:00:57;;;;;;;0.60;0.60;;;;;;;11.08;93.57;100587.00;5019879;28;20649;-69
2022/10/21 07:03:25;;;;;;;0.40;0.40;;;;;;;11.25;93.57;100586.75;5016032;28;20252;-69
2022/10/21 07:05:59;;;;;;;0.70;0.70;;;;;;;11.26;94.28;100568.78;5019404;28;20197;-69
2022/10/21 07:08:27;;;;;;;0.50;0.50;;;;;;;11.48;94.48;100575.28;5030263;28;20299;-69
2022/10/21 07:10:53;;;;;;;0.50;0.50;;;;;;;11.62;94.62;100576.81;5020425;28;20198;-69
2022/10/21 07:13:21;;;;;;;0.60;0.60;;;;;;;11.71;93.22;100576.69;5024532;28;20202;-69
2022/10/21 07:15:47;;;;;;;0.70;0.70;;;;;;;11.82;92.86;100575.66;5023971;28;20859;-68
2022/10/21 07:18:14;;;;;;;0.60;0.60;;;;;;;11.92;91.76;100578.91;5014485;28;20202;-69
2022/10/21 07:20:41;;;;;;;0.80;0.80;;;;;;;11.97;91.37;100587.38;5016383;28;20708;-69
2022/10/21 07:23:09;;;;;;;0.60;0.60;;;;;;;12.04;90.14;100581.25;5025999;28;20210;-68
2022/10/21 07:25:36;;;;;;;0.50;0.50;;;;;;;12.16;89.39;100585.34;5025255;28;20214;-69
2022/10/21 07:28:03;;;;;;;0.50;0.50;;;;;;;12.22;90.57;100575.78;5007106;28;20225;-69
2022/10/21 07:30:30;;;;;;;0.60;0.60;;;;;;;12.42;89.09;100578.84;5030201;28;20221;-69
2022/10/21 07:32:57;;;;;;;0.60;0.60;;;;;;;12.53;88.09;100582.06;5028520;28;20215;-69
2022/10/21 07:35:23;;;;;;;0.60;0.60;;;;;;;12.71;88.78;100580.00;5020888;28;20586;-69
2022/10/21 07:37:50;;;;;;;1.17;1.07;;;;;;;12.87;90.41;100571.94;5010140;28;20198;-69
2022/10/21 07:40:19;;;;;;;0.50;0.50;;;;;;;13.02;88.84;100575.94;5013727;28;20214;-68
2022/10/21 07:42:45;;;;;;;0.90;0.90;;;;;;;13.23;87.26;100579.78;5014210;28;20198;-69
2022/10/21 07:45:12;;;;;;;0.60;0.60;;;;;;;13.32;85.27;100575.28;5026070;28;20209;-68
2022/10/21 07:47:39;;;;;;;0.70;0.70;;;;;;;13.45;84.85;100568.97;5017598;28;20930;-68
2022/10/21 07:50:06;;;;;;;0.50;0.50;;;;;;;13.58;84.63;100570.38;5017691;28;20218;-68
2022/10/21 07:52:33;;;;;;;0.70;0.70;;;;;;;13.54;83.91;100566.16;5025133;28;20210;-69
2022/10/21 07:55:01;;;;;;;0.60;0.60;;;;;;;13.76;82.67;100575.97;5019422;28;20206;-70
2022/10/21 07:57:29;;;;;;;0.60;0.60;;;;;;;13.82;82.39;100571.53;5019259;28;20201;-70
2022/10/21 07:59:56;;;;;;;0.50;0.50;;;;;;;13.96;81.67;100573.72;5012272;28;20206;-67
2022/10/21 08:02:23;;;;;;;0.60;0.60;;;;;;;13.96;82.09;100574.56;5023770;28;20218;-66
2022/10/21 08:04:51;;;;;;;0.50;0.50;;;;;;;14.17;81.50;100573.19;5018538;28;20207;-67
2022/10/21 08:07:17;;;;;;;0.47;0.47;;;;;;;14.34;80.75;100572.78;5016315;28;20590;-67
2022/10/21 08:09:44;;;;;;;0.97;0.97;;;;;;;14.37;79.62;100568.41;5017688;28;20613;-67
2022/10/21 08:12:11;;;;;;;0.40;0.40;;;;;;;14.49;79.01;100575.78;5024134;28;20209;-67
2022/10/21 08:14:40;;;;;;;0.60;0.60;;;;;;;14.48;78.67;100574.09;5021250;28;20225;-67
2022/10/21 08:17:07;;;;;;;0.60;0.60;;;;;;;14.54;79.42;100567.94;5016048;28;20205;-67
2022/10/21 08:19:34;;;;;;;1.17;1.17;;;;;;;14.58;79.07;100570.38;5017996;28;20202;-67
2022/10/21 08:22:01;;;;;;;4.23;0.80;;;;;;;14.45;79.07;100563.84;5010699;28;20208;-68
2022/10/21 08:24:28;;;;;;;0.67;0.67;;;;;;;14.51;79.18;100563.69;5012584;28;20202;-67
2022/10/21 08:26:55;;;;;;;0.50;0.50;;;;;;;14.70;78.71;100567.44;5008137;28;20209;-67
2022/10/21 08:29:22;;;;;;;0.80;0.80;;;;;;;14.84;77.25;100569.63;5005266;28;20219;-68
2022/10/21 08:31:50;;;;;;;0.50;0.50;;;;;;;14.85;77.23;100562.75;5019595;28;20205;-67
2022/10/21 08:34:17;;;;;;;0.50;0.50;;;;;;;14.98;76.81;100564.06;5016559;28;20305;-67
2022/10/21 08:36:44;;;;;;;0.60;0.60;;;;;;;15.18;77.07;100561.75;5010080;28;20616;-67
2022/10/21 08:39:10;;;;;;;0.60;0.60;;;;;;;15.26;75.65;100570.09;5029217;28;20201;-67
2022/10/21 08:41:59;;;;;;;0.70;0.70;;;;;;;15.53;75.14;100561.53;5020194;28;20220;-68
2022/10/21 08:44:32;;;;;;;0.50;0.50;;;;;;;15.75;74.75;100570.28;5022031;28;20213;-67
2022/10/21 08:47:07;;;;;;;0.70;0.70;;;;;;;15.84;72.97;100569.13;5016998;28;20586;-67
2022/10/21 08:49:46;;;;;;;0.67;0.67;;;;;;;15.92;73.20;100571.47;5005794;28;20690;-67
2022/10/21 08:52:17;;;;;;;0.63;0.63;;;;;;;15.97;71.66;100569.53;5019931;28;20220;-67
2022/10/21 08:54:50;;;;;;;0.40;0.40;;;;;;;16.03;73.52;100559.84;5019345;28;20259;-75
2022/10/21 08:57:18;;;;;;;0.50;0.50;;;;;;;16.06;72.53;100548.53;5010577;28;20211;-67
2022/10/21 08:59:46;;;;;;;0.60;0.60;;;;;;;16.15;72.30;100554.28;5024756;28;20204;-68
2022/10/21 09:02:27;;;;;;;0.50;0.50;;;;;;;16.38;71.74;100558.59;5018216;28;20202;-67
2022/10/21 09:05:02;;;;;;;0.50;0.50;;;;;;;16.40;71.14;100551.66;5014677;28;20210;-67
2022/10/21 09:07:40;;;;;;;0.67;0.67;;;;;;;16.59;69.90;100549.28;5012646;28;20256;-67
2022/10/21 09:10:15;;;;;;;0.80;0.80;;;;;;;16.68;70.55;100544.59;5018336;28;20229;-67
2022/10/21 09:12:58;;;;;;;1.00;1.00;;;;;;;16.69;68.44;100546.31;5013828;28;20201;-67
2022/10/21 09:15:27;;;;;;;0.83;0.83;;;;;;;16.65;69.13;100544.72;5006954;28;20663;-67
2022/10/21 09:18:09;;;;;;;1.00;1.00;;;;;;;16.69;69.27;100540.28;5014764;28;20204;-67
2022/10/21 09:20:47;;;;;;;0.73;0.73;;;;;;;16.88;68.12;100540.44;5010159;28;20670;-67
2022/10/21 09:23:38;;;;;;;1.07;1.07;;;;;;;16.96;67.75;100533.22;5010338;28;20205;-67
2022/10/21 09:26:15;;;;;;;0.60;0.60;;;;;;;17.04;67.91;100533.75;5020989;28;20205;-68
2022/10/21 09:28:42;;;;;;;0.57;0.57;;;;;;;16.99;66.28;100535.69;5022800;28;20221;-67
2022/10/21 09:31:15;;;;;;;0.60;0.60;;;;;;;16.84;67.26;100528.47;5015974;28;20669;-68
2022/10/21 09:33:45;;;;;;;0.90;0.90;;;;;;;16.68;68.38;100528.22;5030943;28;20201;-69
2022/10/21 09:36:15;;;;;;;0.90;0.90;;;;;;;16.70;68.58;100527.25;5016061;28;20202;-67
2022/10/21 09:38:48;;;;;;;0.77;0.77;;;;;;;16.60;67.87;100528.53;5024825;28;20666;-67
2022/10/21 09:41:18;;;;;;;0.87;0.87;;;;;;;16.66;69.42;100520.53;5009827;28;20217;-67
2022/10/21 09:43:45;;;;;;;0.60;0.60;;;;;;;16.84;68.07;100529.34;5011713;28;20677;-70
2022/10/21 09:46:13;;;;;;;0.83;0.83;;;;;;;16.76;68.47;100518.44;5023007;28;20216;-70
2022/10/21 09:48:44;;;;;;;0.50;0.50;;;;;;;16.80;67.89;100513.06;5021400;28;20224;-70
2022/10/21 09:51:16;;;;;;;0.60;0.60;;;;;;;16.72;67.54;100515.09;5024807;28;20202;-69
2022/10/21 09:53:47;;;;;;;0.70;0.70;;;;;;;16.78;67.32;100507.09;5029311;28;20584;-70
2022/10/21 09:56:18;;;;;;;0.40;0.40;;;;;;;16.89;67.38;100495.50;5017503;28;20281;-69
2022/10/21 09:58:50;;;;;;;0.50;0.50;;;;;;;17.00;68.42;100498.50;5022700;28;20201;-69
2022/10/21 10:01:19;;;;;;;0.60;0.60;;;;;;;16.80;66.54;100450.91;5021396;28;20216;-69
2022/10/21 10:03:49;;;;;;;0.70;0.70;;;;;;;16.97;66.18;100488.25;5023277;28;20217;-68
2022/10/21 10:06:32;;;;;;;0.57;0.57;;;;;;;16.96;66.17;100489.19;5018063;28;20249;-70
2022/10/21 10:09:08;;;;;;;0.83;0.83;;;;;;;16.97;66.14;100483.06;5014287;28;20221;-69
2022/10/21 10:11:48;;;;;;;0.50;0.50;;;;;;;17.08;66.15;100486.09;5015179;28;20209;-69
2022/10/21 10:14:33;;;;;;;0.77;0.77;;;;;;;17.15;65.10;100472.00;5021524;28;20220;-70
2022/10/21 10:17:34;;;;;;;0.70;0.70;;;;;;;17.27;66.62;100471.50;5032628;28;20209;-70
2022/10/21 10:20:23;;;;;;;0.40;0.40;;;;;;;17.25;65.27;100465.56;5028120;28;20198;-70
2022/10/21 10:23:18;;;;;;;0.70;0.70;;;;;;;17.42;66.97;100460.50;5007673;28;20662;-70
2022/10/21 10:25:50;;;;;;;0.53;0.53;;;;;;;17.48;64.60;100462.84;5010522;28;20214;-70
2022/10/21 10:28:23;;;;;;;1.27;1.27;;;;;;;17.61;65.60;100458.84;5025715;28;20274;-70
2022/10/21 10:30:54;;;;;;;0.47;0.47;;;;;;;17.70;63.86;100455.91;5027214;28;20213;-69
2022/10/21 10:33:22;;;;;;;0.73;0.73;;;;;;;17.61;63.49;100456.28;5027736;28;20294;-69
2022/10/21 10:35:53;;;;;;;0.50;0.50;;;;;;;17.54;63.35;100436.69;5012124;28;20740;-69
2022/10/21 10:38:24;;;;;;;0.53;0.53;;;;;;;17.80;64.03;100451.97;5018719;28;20216;-69
2022/10/21 10:40:51;;;;;;;0.43;0.43;;;;;;;17.91;64.10;100448.94;5025954;28;20209;-69
2022/10/21 10:43:24;;;;;;;0.50;0.50;;;;;;;18.07;63.28;100451.69;5022190;28;20279;-69
2022/10/21 10:45:54;;;;;;;0.70;0.70;;;;;;;18.09;62.68;100434.31;5021233;28;20198;-69
2022/10/21 10:48:26;;;;;;;0.50;0.50;;;;;;;18.16;63.25;100433.13;5021463;28;20221;-69
2022/10/21 10:50:56;;;;;;;0.70;0.70;;;;;;;18.22;61.63;100428.50;5007826;28;20697;-69
2022/10/21 10:53:31;;;;;;;0.57;0.57;;;;;;;18.28;61.16;100424.78;5006122;28;20206;-69
2022/10/21 10:56:12;;;;;;;0.70;0.70;;;;;;;18.16;60.85;100412.34;5014530;28;20213;-70
2022/10/21 10:58:44;;;;;;;1.00;1.00;;;;;;;18.19;60.92;100418.25;5023487;28;20205;-69
2022/10/21 11:01:17;;;;;;;0.40;0.40;;;;;;;17.99;61.32;100391.53;5021474;28;20248;-69
2022/10/21 11:03:50;;;;;;;0.50;0.50;;;;;;;18.19;60.86;100412.25;5020884;28;20221;-67
2022/10/21 11:06:27;;;;;;;0.53;0.53;;;;;;;18.12;61.43;100400.44;5017934;28;20669;-68
2022/10/21 11:08:57;;;;;;;0.53;0.53;;;;;;;18.17;60.99;100398.47;5005744;28;20262;-67
2022/10/21 11:11:28;;;;;;;0.53;0.53;;;;;;;18.28;61.31;100388.47;5006244;28;20252;-67
2022/10/21 11:13:55;;;;;;;0.47;0.47;;;;;;;18.46;60.67;100394.53;5003057;28;20223;-68
2022/10/21 11:16:40;;;;;;;0.90;0.90;;;;;;;18.33;59.73;100382.13;5001638;28;20210;-68
2022/10/21 11:19:15;;;;;;;0.40;0.40;;;;;;;18.20;60.69;100380.16;4999688;28;20194;-67
2022/10/21 11:21:51;;;;;;;0.80;0.80;;;;;;;18.02;60.72;100379.25;5004210;28;20205;-67
2022/10/21 11:24:42;;;;;;;0.70;0.70;;;;;;;18.14;60.93;100372.66;5000547;28;20671;-68
2022/10/21 11:27:17;;;;;;;0.70;0.70;;;;;;;18.33;60.68;100370.91;5004332;28;20213;-68
2022/10/21 11:29:53;;;;;;;0.63;0.63;;;;;;;18.33;59.65;100363.09;5011136;28;20221;-67
2022/10/21 11:32:36;;;;;;;0.73;0.73;;;;;;;18.23;60.90;100367.03;5010682;28;20305;-67
2022/10/21 11:35:17;;;;;;;0.60;0.60;;;;;;;18.09;60.36;100361.66;5011018;28;20206;-68
2022/10/21 11:38:04;;;;;;;0.40;0.40;;;;;;;18.09;61.48;100356.47;5014352;28;20213;-67
2022/10/21 11:40:37;;;;;;;0.50;0.50;;;;;;;18.11;60.65;100352.03;5012336;28;20205;-68